Mayfield Heights, Ohio
Current Conditions -  °F | °C
As of 10:45 AM on Wednesday 22 Oct 2014 (Local Time) from KCGF Reporting Station
Overcast Overcast  
Wind Chill: 43°   Ceiling: 1400
Heat Index: 48°   Visibility: 10mi
Dew Point: 45°   Wind: 14mph
Humidity: 87%   Direction: 30°NNE
Pressure: 30.26"   Gusts: NA
Location:  41.5545°N, 81.4746°W
Report Text: KCGF 221445Z 03012KT 10SM BKN014 OVC035 09/07 A3026
Loading
Personal Weather Stations






























Interactive Weather Map
Tropical Storm Tracking
New forecast layout! Learn more

10-Day Weather Forecast

Advertisements
Track Severe Weather on mobile